Deerfield, Missouri
Current Conditions -  °F | °C
As of 10:55 AM on Monday 22 Dec 2014 (Local Time) from KPTS Reporting Station
Haze Haze  
Wind Chill: 45°   Ceiling: 400
Heat Index: 48°   Visibility: 2.5mi
Dew Point: 48°   Wind: 7mph
Humidity: 100%   Direction: 190°S
Pressure: 29.56"   Gusts: NA
Location:  37.84°N, 94.51°W
Report Text: KPTS 221655Z AUTO 19006KT 2 1/2SM BR OVC004 09/09 A2956 RMK AO2 P0001 T00910092
Loading
Personal Weather Stations






























Interactive Weather Map New forecast layout! Learn more

10-Day Weather Forecast

Advertisements
Track Severe Weather on mobile